首页
METAR-TAF:

METAR-TAF

机场 :

安尼斯敦, 阿拉巴马州, 美国

纬度: 33-35-26N, 经度: 085-50-51W, 海拔: 186米

当前天气观测

该预报发布于21分钟前的10:53 UTC
静风
温度 3°C
湿度 100%
气压 1019 hPa
能見度: 0.4公里

METAR: KANB 211053Z AUTO 00000KT 1/4SM FG VV001 03/03 A3009 RMK AO2 SLP192 T00330028

时间: 06:14 (11:14 UTC)

预报

该预报发布于46分钟前的10:28 UTC
预报有效从21日的 10点(UTC)到 22日的 06点(UTC)
风速3节,风向西转西南
能見度: 4.8公里
散云层高于100英尺
轻雾
短暂存在
从 21日的 10点(UTC)到 21日的 12点(UTC)
能見度: 1.6公里
多云层高于100英尺
轻雾
从 21日的 1400点(UTC)
风速9节,风向西
能見度: 10公里
天空无云
从 22日的 0000点(UTC)
风速节,风向
能見度: 10公里
天空无云

TAF: KANB 211028Z 2110/2206 25003KT 3SM BR SCT001 TEMPO 2110/2112 1SM BR BKN001 FM211400 28009KT P6SM SKC FM220000 00000KT P6SM SKC

超过4000个机场的气象观测和天气预报(METAR&TAF报告)。

可查询的气象台以黄色和红色小点在地图上表示。

将鼠标移到小点上方,可查看气象台名称。

然后点击查看天气观测和预报。

如需切换地图:点击带黑十字的绿色按钮放大地图;点击带横线的绿色按钮缩小地图;或者点击绿色箭头查看邻近地区的地图。


METAR-TAF: